Time;durP1;ratioP1;P1;durP2;ratioP2;P2;SDS_P1;SDS_P2;PMS_P1;PMS_P2;Temp;Humidity;BMP_temperature;BMP_pressure;BME280_temperature;BME280_humidity;BME280_pressure;Samples;Min_cycle;Max_cycle;Signal;HPM_P1;HPM_P2
2023/01/10 00:01:47;;;;;;;6.30;1.70;;;;;;;-2.88;100.00;100008.86;103171;1313;547031;-67
2023/01/10 00:04:14;;;;;;;5.30;1.60;;;;;;;-2.77;100.00;100009.67;109444;1287;22459;-68
2023/01/10 00:06:42;;;;;;;4.60;1.30;;;;;;;-2.70;100.00;100014.16;109425;1289;22199;-67
2023/01/10 00:09:09;;;;;;;6.00;1.80;;;;;;;-2.65;100.00;100013.77;109410;1289;23638;-67
2023/01/10 00:14:22;;;;;;;3.50;1.30;;;;;;;-2.57;100.00;100014.39;109999;1276;238819;-67
2023/01/10 00:16:49;;;;;;;5.00;1.80;;;;;;;-2.55;100.00;100014.64;110229;1271;22221;-69
2023/01/10 00:19:16;;;;;;;9.20;2.10;;;;;;;-2.53;100.00;100012.05;110311;1275;23395;-68
2023/01/10 00:21:43;;;;;;;5.10;2.20;;;;;;;-2.51;100.00;100006.36;110321;1274;22427;-68
2023/01/10 00:24:21;;;;;;;8.70;2.50;;;;;;;-2.48;100.00;100010.98;110316;1254;22251;-68
2023/01/10 00:26:53;;;;;;;6.00;1.70;;;;;;;-2.46;100.00;100011.72;110289;1276;22822;-68
2023/01/10 00:29:21;;;;;;;5.90;1.80;;;;;;;-2.47;100.00;100013.35;110334;1275;22393;-68
2023/01/10 00:31:51;;;;;;;6.40;2.80;;;;;;;-2.46;100.00;100027.78;110424;1270;22450;-68
2023/01/10 00:34:18;;;;;;;9.30;3.40;;;;;;;-2.45;100.00;100031.30;110325;1276;22315;-68
2023/01/10 00:36:46;;;;;;;9.80;3.70;;;;;;;-2.44;100.00;100021.60;110107;1276;22516;-68
2023/01/10 00:39:18;;;;;;;6.80;2.90;;;;;;;-2.45;100.00;100023.27;107538;1271;23746;-67
2023/01/10 00:44:31;;;;;;;13.10;3.50;;;;;;;-2.50;100.00;100025.45;107818;1276;22533;-67
2023/01/10 00:46:58;;;;;;;6.50;2.20;;;;;;;-2.54;100.00;100021.95;107777;1272;26170;-68
2023/01/10 00:49:25;;;;;;;4.30;1.60;;;;;;;-2.56;100.00;100017.58;107768;1274;25329;-67
2023/01/10 00:51:52;;;;;;;5.70;2.30;;;;;;;-2.58;100.00;100015.40;107623;1270;23241;-67
2023/01/10 00:54:22;;;;;;;7.50;2.40;;;;;;;-2.61;100.00;100021.55;107743;1276;23126;-67
2023/01/10 00:56:49;;;;;;;;;;;;;;;-2.64;100.00;100023.88;107876;1276;22548;-68
2023/01/10 00:59:16;;;;;;;7.20;2.20;;;;;;;-2.70;100.00;100021.52;108100;1276;22588;-67
2023/01/10 01:01:43;;;;;;;8.20;2.10;;;;;;;-2.74;100.00;100025.23;107586;1276;24376;-67
2023/01/10 01:04:10;;;;;;;6.50;2.10;;;;;;;-2.74;100.00;100027.76;107622;1276;23459;-68
2023/01/10 01:06:37;;;;;;;8.80;2.50;;;;;;;-2.75;100.00;100028.20;107492;1272;23386;-67
2023/01/10 01:09:04;;;;;;;9.10;2.40;;;;;;;-2.74;100.00;100027.27;107458;1276;22526;-68
2023/01/10 01:11:31;;;;;;;6.00;2.40;;;;;;;-2.73;100.00;100024.65;110120;1275;25378;-68
2023/01/10 01:13:58;;;;;;;7.90;2.50;;;;;;;-2.72;100.00;100030.20;107493;1271;22546;-68
2023/01/10 01:16:25;;;;;;;6.40;2.30;;;;;;;-2.72;100.00;100029.96;107510;1269;22556;-68
2023/01/10 01:18:52;;;;;;;8.40;2.50;;;;;;;-2.72;100.00;100025.90;107561;1274;23873;-68
2023/01/10 01:21:20;;;;;;;8.00;2.50;;;;;;;-2.72;100.00;100030.17;107574;1273;22665;-68
2023/01/10 01:23:47;;;;;;;7.00;2.50;;;;;;;-2.72;100.00;100026.23;107539;1275;23501;-67
2023/01/10 01:26:14;;;;;;;9.40;2.50;;;;;;;-2.72;100.00;100022.70;107521;1274;23674;-68
2023/01/10 01:28:41;;;;;;;9.30;2.90;;;;;;;-2.74;100.00;100014.02;107495;1276;25409;-68
2023/01/10 01:31:09;;;;;;;7.00;2.50;;;;;;;-2.73;100.00;100015.73;107543;1275;26712;-68
2023/01/10 01:33:36;;;;;;;7.70;2.60;;;;;;;-2.66;100.00;100017.42;107594;1276;24223;-68
2023/01/10 01:36:07;;;;;;;7.00;2.10;;;;;;;-2.65;100.00;100022.98;107545;1260;22549;-68
2023/01/10 01:38:36;;;;;;;9.80;2.40;;;;;;;-2.67;100.00;100023.20;107574;1276;22534;-67
2023/01/10 01:41:55;;;;;;;7.30;2.60;;;;;;;-2.69;100.00;100023.08;110320;1275;22284;-68
2023/01/10 01:44:09;;;;;;;6.40;2.40;;;;;;;-2.69;100.00;100025.73;110330;1276;22399;-68
2023/01/10 01:46:36;;;;;;;7.30;2.30;;;;;;;-2.69;100.00;100029.31;110346;1276;22967;-68
2023/01/10 01:49:05;;;;;;;7.50;2.90;;;;;;;-2.70;100.00;100034.85;110190;1267;22410;-69
2023/01/10 01:51:32;;;;;;;9.40;3.00;;;;;;;-2.70;100.00;100037.01;110197;1276;22940;-69
2023/01/10 01:54:06;;;;;;;7.20;2.70;;;;;;;-2.70;100.00;100037.21;110161;1277;22253;-68
2023/01/10 01:57:00;;;;;;;8.10;2.90;;;;;;;-2.66;100.00;100039.05;110308;1276;23180;-68
2023/01/10 01:59:32;;;;;;;9.70;2.50;;;;;;;-2.60;100.00;100038.14;110260;1270;23180;-68
2023/01/10 02:02:02;;;;;;;8.60;2.60;;;;;;;-2.62;100.00;100037.17;110283;1276;23125;-68
2023/01/10 02:04:38;;;;;;;7.40;2.60;;;;;;;-2.65;100.00;100041.60;110014;1278;22289;-68
2023/01/10 02:07:05;;;;;;;9.10;4.50;;;;;;;-2.67;100.00;100028.14;110278;1271;22345;-69
2023/01/10 02:09:40;;;;;;;9.70;2.90;;;;;;;-2.68;100.00;100032.17;110225;1276;23041;-68
2023/01/10 02:12:07;;;;;;;8.60;2.70;;;;;;;-2.70;100.00;100030.77;110037;1275;22368;-68
2023/01/10 02:14:33;;;;;;;6.90;3.00;;;;;;;-2.71;100.00;100033.96;110201;1272;22240;-68
2023/01/10 02:17:01;;;;;;;7.30;2.90;;;;;;;-2.72;100.00;100035.34;110198;1276;22385;-68
2023/01/10 02:19:32;;;;;;;7.00;2.80;;;;;;;-2.66;100.00;100036.59;110338;1276;22223;-68
2023/01/10 02:22:22;;;;;;;11.00;3.40;;;;;;;-2.65;100.00;100036.83;110257;1276;23105;-69
2023/01/10 02:25:27;;;;;;;7.20;3.10;;;;;;;-2.67;100.00;100025.36;110322;1275;22840;-68
2023/01/10 02:28:18;;;;;;;9.30;3.20;;;;;;;-2.71;100.00;100024.21;110235;1276;22344;-68
2023/01/10 02:31:20;;;;;;;11.70;4.10;;;;;;;-2.76;100.00;100026.00;110347;1276;22327;-68
2023/01/10 02:34:17;;;;;;;8.70;3.00;;;;;;;-2.80;100.00;100016.89;110325;1276;22227;-68
2023/01/10 02:36:47;;;;;;;11.80;4.00;;;;;;;-2.81;100.00;100017.22;110326;1276;22287;-68
2023/01/10 02:39:42;;;;;;;11.30;3.10;;;;;;;-2.75;100.00;100021.51;110321;1269;22992;-68
2023/01/10 02:42:34;;;;;;;8.40;3.40;;;;;;;-2.72;100.00;100032.17;110168;1271;22201;-68
2023/01/10 02:45:24;;;;;;;8.70;3.30;;;;;;;-2.76;100.00;100037.40;107964;1274;25505;-68
2023/01/10 02:47:51;;;;;;;10.70;3.80;;;;;;;-2.79;100.00;100045.71;107538;1276;22542;-68
2023/01/10 02:50:34;;;;;;;11.20;3.20;;;;;;;-2.80;100.00;100047.16;107542;1275;24258;-67
2023/01/10 02:53:05;;;;;;;16.30;3.60;;;;;;;-2.82;100.00;100045.60;109509;1276;22437;-68
2023/01/10 02:55:55;;;;;;;11.10;3.50;;;;;;;-2.85;100.00;100046.86;110146;1276;23276;-68
2023/01/10 02:58:35;;;;;;;11.50;3.10;;;;;;;-2.79;100.00;100050.05;110305;1275;22297;-68
2023/01/10 03:01:05;;;;;;;8.10;2.80;;;;;;;-2.74;100.00;100048.50;110260;1276;22344;-68
2023/01/10 03:03:59;;;;;;;9.70;3.40;;;;;;;-2.76;100.00;100053.67;110312;1271;22479;-68
2023/01/10 03:06:49;;;;;;;10.10;3.00;;;;;;;-2.78;100.00;100054.88;110223;1276;23124;-68
2023/01/10 03:09:50;;;;;;;13.20;5.00;;;;;;;-2.82;100.00;100054.30;110336;1275;22508;-68
2023/01/10 03:12:30;;;;;;;17.00;3.90;;;;;;;-2.85;100.00;100064.05;110275;1276;22338;-68
2023/01/10 03:14:57;;;;;;;8.80;3.40;;;;;;;-2.86;100.00;100064.72;110276;1275;22254;-67
2023/01/10 03:17:24;;;;;;;10.50;4.20;;;;;;;-2.86;100.00;100063.33;110304;1276;22264;-67
2023/01/10 03:19:53;;;;;;;14.50;4.20;;;;;;;-2.79;100.00;100066.39;110225;1276;22233;-67
2023/01/10 03:22:20;;;;;;;10.10;3.70;;;;;;;-2.75;100.00;100071.61;110335;1276;22905;-67
2023/01/10 03:24:48;;;;;;;11.20;4.00;;;;;;;-2.76;100.00;100075.06;110054;1276;23198;-68
2023/01/10 03:27:18;;;;;;;13.00;3.70;;;;;;;-2.79;100.00;100076.66;110182;1270;22254;-67
2023/01/10 03:29:59;;;;;;;8.70;3.80;;;;;;;-2.80;100.00;100078.53;110332;1276;22411;-68
2023/01/10 03:32:27;;;;;;;11.00;3.40;;;;;;;-2.75;100.00;100082.64;110268;1276;22406;-68
2023/01/10 03:34:54;;;;;;;13.10;3.30;;;;;;;-2.70;100.00;100089.68;110192;1275;22979;-68
2023/01/10 03:37:34;;;;;;;9.10;3.70;;;;;;;-2.73;100.00;100081.07;107537;1274;25493;-67
2023/01/10 03:40:23;;;;;;;11.90;3.40;;;;;;;-2.78;100.00;100080.29;107510;1275;25492;-67
2023/01/10 03:46:05;;;;;;;8.30;3.40;;;;;;;-2.87;100.00;100074.98;107130;1276;22564;-68
2023/01/10 03:48:35;;;;;;;9.30;3.80;;;;;;;-2.83;100.00;100082.09;107537;1273;22567;-67
2023/01/10 03:51:03;;;;;;;11.20;4.50;;;;;;;-2.82;100.00;100084.14;107444;1272;25352;-67
2023/01/10 03:53:31;;;;;;;12.70;4.70;;;;;;;-2.85;100.00;100084.61;107336;1275;22538;-67
2023/01/10 03:55:58;;;;;;;12.90;5.00;;;;;;;-2.87;100.00;100076.46;107763;1276;25410;-67
2023/01/10 03:58:27;;;;;;;11.70;5.20;;;;;;;-2.86;100.00;100079.64;107611;1276;22584;-67
2023/01/10 04:00:54;;;;;;;10.90;4.70;;;;;;;-2.85;100.00;100078.30;107596;1275;25375;-67
2023/01/10 04:03:22;;;;;;;10.20;4.40;;;;;;;-2.80;100.00;100082.70;107543;1270;25419;-68
2023/01/10 04:05:49;;;;;;;14.30;4.70;;;;;;;-2.75;100.00;100088.63;107506;1275;25434;-67
2023/01/10 04:08:16;;;;;;;;;;;;;;;-2.77;100.00;100096.88;107554;1276;22770;-67
2023/01/10 04:10:43;;;;;;;9.30;3.80;;;;;;;-2.84;100.00;100101.04;107548;1276;25326;-67
2023/01/10 04:13:10;;;;;;;11.80;4.30;;;;;;;-2.91;100.00;100106.85;107554;1269;25353;-67
2023/01/10 04:15:37;;;;;;;13.10;4.30;;;;;;;-2.92;100.00;100111.79;107517;1275;25507;-67
2023/01/10 04:18:04;;;;;;;14.30;4.70;;;;;;;-2.87;100.00;100119.55;109728;1269;23088;-68
2023/01/10 04:20:32;;;;;;;12.80;4.50;;;;;;;-2.81;100.00;100114.17;110372;1276;22197;-68
2023/01/10 04:22:59;;;;;;;11.90;4.30;;;;;;;-2.79;100.00;100114.52;110352;1276;22439;-68
2023/01/10 04:25:26;;;;;;;13.90;4.80;;;;;;;-2.82;100.00;100110.98;110330;1276;22894;-68
2023/01/10 04:27:53;;;;;;;13.60;5.10;;;;;;;-2.85;100.00;100113.54;110313;1268;22343;-68
2023/01/10 04:30:20;;;;;;;;;;;;;;;-2.86;100.00;100113.87;110365;1276;22489;-68
2023/01/10 04:32:47;;;;;;;11.80;3.90;;;;;;;-2.85;100.00;100120.04;110320;1275;22266;-68
2023/01/10 04:35:14;;;;;;;9.50;4.50;;;;;;;-2.89;100.00;100122.65;110354;1272;23049;-69
2023/01/10 04:37:41;;;;;;;10.60;4.50;;;;;;;-2.93;100.00;100127.34;110337;1271;23170;-68
2023/01/10 04:40:09;;;;;;;10.90;4.40;;;;;;;-2.96;100.00;100128.98;110329;1275;22800;-68
2023/01/10 04:42:37;;;;;;;12.30;4.30;;;;;;;-3.01;100.00;100133.88;110185;1276;22252;-69
2023/01/10 04:45:04;;;;;;;9.10;4.50;;;;;;;-2.96;100.00;100135.86;110349;1270;22993;-68
2023/01/10 04:47:31;;;;;;;9.80;4.10;;;;;;;-2.96;100.00;100141.05;110330;1275;22386;-68
2023/01/10 04:49:58;;;;;;;15.10;4.70;;;;;;;-3.02;100.00;100146.63;110316;1269;22392;-68
2023/01/10 04:52:27;;;;;;;;;;;;;;;-3.05;100.00;100144.56;110318;1270;22459;-68
2023/01/10 04:54:53;;;;;;;12.20;4.00;;;;;;;-3.12;100.00;100148.12;110371;1275;23293;-68
2023/01/10 04:57:21;;;;;;;13.00;4.20;;;;;;;-3.12;100.00;100141.42;110326;1275;22374;-69
2023/01/10 04:59:48;;;;;;;11.00;4.10;;;;;;;-3.06;100.00;100142.63;110314;1275;22339;-68
2023/01/10 05:02:15;;;;;;;14.50;5.00;;;;;;;-3.09;100.00;100142.27;110347;1273;22308;-68
2023/01/10 05:04:42;;;;;;;10.40;3.80;;;;;;;-3.13;100.00;100140.48;110361;1276;22362;-68
2023/01/10 05:07:09;;;;;;;11.10;4.10;;;;;;;-3.17;100.00;100138.72;110308;1269;22375;-68
2023/01/10 05:09:35;;;;;;;13.90;4.30;;;;;;;-3.14;100.00;100138.07;110216;1271;22200;-68
2023/01/10 05:12:03;;;;;;;19.20;4.80;;;;;;;-3.12;100.00;100146.75;110317;1271;22265;-68
2023/01/10 05:14:30;;;;;;;10.70;4.50;;;;;;;-3.15;100.00;100144.73;110193;1276;22290;-68
2023/01/10 05:16:58;;;;;;;13.40;4.10;;;;;;;-3.18;100.00;100149.14;110328;1276;22484;-68
2023/01/10 05:19:25;;;;;;;8.40;4.30;;;;;;;-3.21;100.00;100152.88;110300;1275;22470;-69
2023/01/10 05:21:52;;;;;;;;;;;;;;;-3.23;100.00;100160.65;110282;1275;23132;-68
2023/01/10 05:24:19;;;;;;;12.70;4.10;;;;;;;-3.19;100.00;100161.70;110367;1276;22334;-69
2023/01/10 05:26:45;;;;;;;11.20;5.20;;;;;;;-3.15;100.00;100170.30;110341;1275;22313;-68
2023/01/10 05:29:13;;;;;;;;;;;;;;;-3.12;100.00;100171.14;107474;1276;22548;-68
2023/01/10 05:31:40;;;;;;;;;;;;;;;-3.20;100.00;100166.99;108034;1274;23003;-68
2023/01/10 05:34:12;;;;;;;13.60;4.40;;;;;;;-3.34;100.00;100172.30;110346;1276;22629;-68
2023/01/10 10:21:48;;;;;;;33.00;13.30;;;;;;;-4.82;100.00;100327.14;103930;1313;545381;-66
2023/01/10 10:24:25;;;;;;;28.20;9.40;;;;;;;-4.60;100.00;100327.60;108673;1296;22284;-67
2023/01/10 10:27:07;;;;;;;21.70;9.00;;;;;;;-4.41;100.00;100331.86;108359;1296;22445;-67
2023/01/10 10:29:39;;;;;;;25.90;8.90;;;;;;;-4.30;100.00;100333.68;108813;1290;22431;-67
2023/01/10 10:32:21;;;;;;;20.80;9.30;;;;;;;-4.22;100.00;100332.98;109332;1285;22551;-67
2023/01/10 10:35:12;;;;;;;21.90;9.40;;;;;;;-4.14;100.00;100334.80;109372;1283;295186;-67
2023/01/10 10:37:47;;;;;;;23.70;9.60;;;;;;;-3.97;100.00;100324.13;108078;1281;22817;-66
2023/01/10 10:40:18;;;;;;;18.50;8.40;;;;;;;-3.93;100.00;100327.23;107217;1278;24370;-66
2023/01/10 10:42:47;;;;;;;31.70;13.00;;;;;;;-3.91;100.00;100317.71;107162;1281;22564;-66
2023/01/10 10:45:18;;;;;;;20.30;9.20;;;;;;;-3.88;100.00;100307.60;107087;1281;22565;-67
2023/01/10 10:47:52;;;;;;;22.80;9.30;;;;;;;-3.85;100.00;100299.85;107126;1259;22664;-67
2023/01/10 10:50:26;;;;;;;25.10;9.80;;;;;;;-3.74;100.00;100288.02;107089;1280;22553;-67
2023/01/10 10:52:53;;;;;;;18.60;9.10;;;;;;;-3.71;100.00;100276.84;107235;1281;25313;-66
2023/01/10 10:55:26;;;;;;;25.10;9.80;;;;;;;-3.72;100.00;100270.10;107052;1281;22878;-67
2023/01/10 10:57:54;;;;;;;23.80;10.40;;;;;;;-3.75;100.00;100267.86;107235;1277;22539;-66
2023/01/10 11:00:27;;;;;;;22.50;10.00;;;;;;;-3.75;100.00;100265.11;107204;1280;22641;-65
2023/01/10 11:03:03;;;;;;;21.00;8.00;;;;;;;-3.74;100.00;100262.11;107031;1281;22565;-65
2023/01/10 11:05:32;;;;;;;24.20;10.10;;;;;;;-3.79;100.00;100259.36;107092;1281;22529;-67
2023/01/10 11:08:01;;;;;;;25.50;9.30;;;;;;;-3.86;100.00;100253.54;107221;1277;22584;-67
2023/01/10 11:10:34;;;;;;;21.50;9.50;;;;;;;-3.93;100.00;100262.77;107221;1279;24293;-69
2023/01/10 11:13:04;;;;;;;36.80;13.30;;;;;;;-3.92;100.00;100266.64;107235;1273;22720;-68
2023/01/10 11:15:42;;;;;;;26.30;10.70;;;;;;;-3.95;100.00;100271.33;107163;1279;22621;-69
2023/01/10 11:18:20;;;;;;;23.90;11.10;;;;;;;-3.97;100.00;100282.80;107120;1279;25338;-68
2023/01/10 12:14:46;;;;;;;20.60;8.50;;;;;;;-4.57;100.00;100284.08;104457;1304;545265;-69
2023/01/10 12:17:30;;;;;;;21.30;9.10;;;;;;;-4.36;100.00;100288.75;106660;1282;22548;-70
2023/01/10 12:19:59;;;;;;;15.60;7.40;;;;;;;-4.17;100.00;100290.05;106617;1285;25552;-70
2023/01/10 12:22:32;;;;;;;24.10;7.90;;;;;;;-4.12;100.00;100302.27;106723;1289;25349;-68
2023/01/10 12:24:59;;;;;;;17.30;7.50;;;;;;;-4.04;100.00;100304.39;109387;1280;23046;-68
2023/01/10 12:27:26;;;;;;;17.40;7.10;;;;;;;-3.95;100.00;100314.98;109006;1286;243561;-70
2023/01/10 12:30:04;;;;;;;22.20;7.90;;;;;;;-3.84;100.00;100316.44;109380;1283;22277;-69
2023/01/10 12:32:43;;;;;;;17.20;8.20;;;;;;;-3.74;100.00;100317.29;109539;1287;22421;-69
2023/01/10 12:35:17;;;;;;;23.90;8.80;;;;;;;-3.70;100.00;100309.44;109627;1287;22393;-69
2023/01/10 12:37:47;;;;;;;13.80;7.10;;;;;;;-3.65;100.00;100300.30;109398;1287;22293;-68
2023/01/10 12:40:27;;;;;;;15.00;7.30;;;;;;;-3.61;100.00;100299.19;109616;1286;22217;-68
2023/01/10 12:46:32;;;;;;;19.80;7.60;;;;;;;-3.51;100.00;100298.02;108905;1293;22587;-69
2023/01/10 12:49:25;;;;;;;23.50;8.10;;;;;;;-3.53;100.00;100285.51;108882;1292;22259;-68
2023/01/10 12:51:53;;;;;;;17.30;8.00;;;;;;;-3.54;100.00;100280.86;109314;1279;22420;-69
2023/01/10 12:54:22;;;;;;;17.80;7.50;;;;;;;-3.52;100.00;100274.43;109509;1279;22468;-69
2023/01/10 12:56:49;;;;;;;18.80;8.70;;;;;;;-3.48;100.00;100268.47;109553;1287;22306;-69
2023/01/10 12:59:34;;;;;;;19.00;7.20;;;;;;;-3.44;100.00;100273.02;109506;1287;22246;-68
2023/01/10 13:02:40;;;;;;;18.80;7.80;;;;;;;-3.45;100.00;100276.55;109573;1286;22240;-69
2023/01/10 13:05:07;;;;;;;21.60;7.30;;;;;;;-3.52;100.00;100285.17;109148;1287;22244;-69
2023/01/10 13:07:34;;;;;;;21.00;7.30;;;;;;;-3.52;100.00;100302.05;109342;1287;22440;-69
2023/01/10 13:10:02;;;;;;;16.80;7.50;;;;;;;-3.48;100.00;100306.11;109523;1287;22459;-69
2023/01/10 13:12:37;;;;;;;17.40;7.00;;;;;;;-3.51;100.00;100317.25;109608;1282;23103;-69
2023/01/10 13:15:05;;;;;;;21.90;8.60;;;;;;;-3.56;100.00;100329.33;108750;1279;1002495;-68
2023/01/10 13:17:37;;;;;;;21.80;7.60;;;;;;;-3.60;100.00;100346.96;109431;1287;22980;-68
2023/01/10 13:20:17;;;;;;;14.00;7.00;;;;;;;-3.56;100.00;100361.27;109449;1287;22279;-69
2023/01/10 13:22:46;;;;;;;20.70;7.60;;;;;;;-3.56;100.00;100372.61;109547;1285;22358;-68
2023/01/10 13:25:26;;;;;;;19.20;7.30;;;;;;;-3.60;100.00;100375.70;109548;1281;22234;-69
2023/01/10 13:28:01;;;;;;;21.90;7.50;;;;;;;-3.64;100.00;100377.02;109551;1287;22425;-68
2023/01/10 13:30:31;;;;;;;20.00;6.90;;;;;;;-3.66;100.00;100376.56;109340;1287;22356;-68
2023/01/10 13:33:04;;;;;;;24.30;10.90;;;;;;;-3.66;100.00;100377.27;109362;1286;22226;-69
2023/01/10 13:35:41;;;;;;;23.80;8.30;;;;;;;-3.60;100.00;100377.66;107430;1287;22797;-69
2023/01/10 13:38:19;;;;;;;24.90;10.00;;;;;;;-3.64;100.00;100374.90;106592;1287;25136;-69
2023/01/10 13:44:12;;;;;;;47.20;20.80;;;;;;;-3.76;100.00;100370.12;106913;1284;22949;-70
2023/01/10 13:46:43;;;;;;;;;;;;;;;-3.78;100.00;100369.70;106817;1284;22557;-70
2023/01/10 13:49:10;;;;;;;37.30;13.40;;;;;;;-3.77;100.00;100373.16;106636;1284;24261;-70
2023/01/10 13:52:19;;;;;;;62.70;22.90;;;;;;;-3.83;100.00;100378.17;106774;1265;24242;-70
2023/01/10 13:54:58;;;;;;;38.80;14.50;;;;;;;-3.85;100.00;100375.11;106775;1281;22706;-69
2023/01/10 13:57:49;;;;;;;31.70;12.90;;;;;;;-3.89;100.00;100381.14;106644;1284;24365;-69
2023/01/10 14:03:52;;;;;;;29.70;11.80;;;;;;;-3.82;100.00;100366.06;106853;1284;22538;-69
2023/01/10 14:06:19;;;;;;;34.10;17.00;;;;;;;-3.86;100.00;100361.16;107009;1284;22533;-69
2023/01/10 14:08:51;;;;;;;24.60;10.70;;;;;;;-3.90;100.00;100365.65;106976;1284;22556;-69
2023/01/10 18:34:58;;;;;;;31.90;6.90;;;;;;;-4.90;100.00;100457.16;104275;1305;544937;-69
2023/01/10 18:37:26;;;;;;;19.70;5.40;;;;;;;-4.72;100.00;100462.23;109571;1288;22258;-69
2023/01/10 18:39:53;;;;;;;15.00;5.60;;;;;;;-4.53;100.00;100471.06;109486;1287;22415;-69
2023/01/10 18:42:20;;;;;;;17.20;5.60;;;;;;;-4.42;100.00;100475.91;109388;1285;23229;-69
2023/01/10 18:44:48;;;;;;;16.00;5.60;;;;;;;-4.37;100.00;100474.40;109409;1282;22209;-69
2023/01/10 18:47:15;;;;;;;18.50;5.90;;;;;;;-4.35;100.00;100471.83;109630;1283;23043;-69
2023/01/10 18:49:42;;;;;;;23.10;6.60;;;;;;;-4.26;100.00;100474.29;109725;1278;343002;-69
2023/01/10 18:52:09;;;;;;;21.20;6.30;;;;;;;-4.20;100.00;100470.80;110021;1278;22416;-69
2023/01/10 18:54:36;;;;;;;20.10;6.20;;;;;;;-4.20;100.00;100472.23;110033;1278;22333;-70
2023/01/10 18:57:03;;;;;;;14.70;6.00;;;;;;;-4.19;100.00;100471.04;110414;1274;22242;-70
2023/01/10 18:59:30;;;;;;;23.40;5.70;;;;;;;-4.11;100.00;100472.01;110441;1275;22189;-71
2023/01/10 19:01:57;;;;;;;22.00;6.00;;;;;;;-4.13;100.00;100475.89;110402;1275;22299;-71
2023/01/10 19:04:24;;;;;;;16.90;6.10;;;;;;;-4.16;100.00;100487.04;110205;1274;22210;-71
2023/01/10 19:06:51;;;;;;;13.60;5.70;;;;;;;-4.12;100.00;100485.19;110456;1274;22402;-71
2023/01/10 19:09:22;;;;;;;17.50;6.30;;;;;;;-4.11;100.00;100477.54;110355;1274;22313;-70
2023/01/10 19:11:49;;;;;;;23.10;5.80;;;;;;;-4.18;100.00;100484.23;110413;1275;22270;-71
2023/01/10 19:14:18;;;;;;;21.20;6.00;;;;;;;-4.25;100.00;100487.83;110325;1274;23115;-70
2023/01/10 19:16:46;;;;;;;21.20;6.60;;;;;;;-4.26;100.00;100489.86;110389;1270;22855;-71
2023/01/10 19:19:13;;;;;;;19.00;5.50;;;;;;;-4.27;100.00;100496.15;110398;1274;22407;-70
2023/01/10 19:21:41;;;;;;;19.20;5.90;;;;;;;-4.34;100.00;100496.38;110374;1272;22233;-70
2023/01/10 19:24:21;;;;;;;29.80;10.40;;;;;;;-4.38;100.00;100496.48;110424;1274;22251;-70
2023/01/10 19:26:48;;;;;;;24.20;7.80;;;;;;;-4.38;100.00;100501.34;110335;1274;23080;-70
2023/01/10 19:29:16;;;;;;;17.30;6.90;;;;;;;-4.43;100.00;100505.10;110322;1269;22391;-70
2023/01/10 19:31:43;;;;;;;33.80;10.10;;;;;;;-4.48;100.00;100511.88;110361;1274;22327;-69
2023/01/10 19:34:11;;;;;;;23.70;8.20;;;;;;;-4.47;100.00;100513.31;110341;1275;22295;-70
2023/01/10 19:36:40;;;;;;;36.90;9.80;;;;;;;-4.44;100.00;100518.42;110180;1274;22397;-71
2023/01/10 19:39:08;;;;;;;43.30;15.20;;;;;;;-4.52;100.00;100526.55;108719;1274;25227;-70
2023/01/10 19:41:36;;;;;;;25.20;7.20;;;;;;;-4.57;100.00;100524.64;107476;1274;22949;-71
2023/01/10 19:44:08;;;;;;;22.90;9.60;;;;;;;-4.57;100.00;100526.36;107426;1270;22530;-71
2023/01/10 19:46:37;;;;;;;24.00;8.20;;;;;;;-4.59;100.00;100524.96;107348;1275;24225;-71
2023/01/10 19:49:06;;;;;;;23.80;6.80;;;;;;;-4.66;100.00;100530.09;107498;1275;25784;-71
2023/01/10 19:51:35;;;;;;;15.80;5.40;;;;;;;-4.67;100.00;100523.67;107477;1272;23984;-72
2023/01/10 19:54:03;;;;;;;19.40;7.20;;;;;;;-4.69;100.00;100527.95;107690;1269;24234;-71
2023/01/10 19:56:30;;;;;;;21.40;7.10;;;;;;;-4.76;100.00;100531.91;107547;1275;22549;-72
2023/01/10 19:58:57;;;;;;;33.00;13.60;;;;;;;-4.84;100.00;100533.47;107414;1275;24354;-71
2023/01/10 20:01:26;;;;;;;42.40;15.30;;;;;;;-4.84;100.00;100533.40;107472;1270;24827;-72
2023/01/10 20:03:55;;;;;;;25.90;9.10;;;;;;;-4.84;100.00;100537.65;107494;1275;22527;-72
2023/01/10 20:06:24;;;;;;;24.10;9.20;;;;;;;-4.89;100.00;100542.05;107524;1269;22609;-72
2023/01/10 20:08:53;;;;;;;21.70;10.50;;;;;;;-4.96;100.00;100544.52;107459;1267;22528;-72
2023/01/10 20:11:20;;;;;;;18.30;6.60;;;;;;;-4.94;100.00;100549.68;107444;1275;24237;-72
2023/01/10 20:13:49;;;;;;;18.40;8.40;;;;;;;-4.90;100.00;100552.75;107715;1275;22734;-72
2023/01/10 20:16:21;;;;;;;20.80;6.80;;;;;;;-4.91;100.00;100553.45;107507;1275;22999;-71
2023/01/10 20:18:49;;;;;;;26.40;7.50;;;;;;;-4.94;100.00;100553.40;107455;1275;22810;-71
2023/01/10 20:21:17;;;;;;;18.50;7.50;;;;;;;-4.90;100.00;100557.79;107510;1275;25341;-71
2023/01/10 20:23:44;;;;;;;23.10;7.60;;;;;;;-4.89;100.00;100559.45;107283;1275;23909;-72
2023/01/10 20:26:13;;;;;;;22.60;8.50;;;;;;;-4.95;100.00;100560.73;107454;1275;23700;-72
2023/01/10 20:28:41;;;;;;;33.00;14.70;;;;;;;-4.95;100.00;100557.48;107603;1275;22919;-71
2023/01/10 20:31:18;;;;;;;61.40;23.70;;;;;;;-4.87;100.00;100555.16;107520;1262;22576;-72
2023/01/10 20:33:45;;;;;;;36.30;11.50;;;;;;;-4.94;100.00;100555.46;107636;1275;22555;-72
2023/01/10 20:36:16;;;;;;;30.40;14.90;;;;;;;-5.02;100.00;100553.06;107851;1275;22526;-72
2023/01/10 20:38:44;;;;;;;20.80;10.50;;;;;;;-5.03;100.00;100557.37;110337;1275;22209;-72
2023/01/10 20:41:12;;;;;;;22.20;10.50;;;;;;;-5.06;100.00;100554.16;110395;1275;22335;-72
2023/01/10 20:43:40;;;;;;;20.80;8.40;;;;;;;-5.12;100.00;100555.69;108359;1275;22527;-72
2023/01/10 20:46:12;;;;;;;27.90;13.10;;;;;;;-5.14;100.00;100561.69;107550;1275;22556;-72
2023/01/10 20:48:39;;;;;;;16.70;7.80;;;;;;;-5.12;100.00;100560.49;107479;1275;23905;-72
2023/01/10 20:51:07;;;;;;;29.40;9.50;;;;;;;-5.18;100.00;100561.64;107320;1275;24189;-72
2023/01/10 20:53:34;;;;;;;28.60;8.40;;;;;;;-5.30;100.00;100562.30;107469;1275;23297;-72
2023/01/10 20:56:06;;;;;;;20.30;8.70;;;;;;;-5.29;100.00;100568.00;107541;1275;24397;-71
2023/01/10 20:58:33;;;;;;;30.30;12.50;;;;;;;-5.31;100.00;100572.81;107416;1275;25601;-71
2023/01/10 21:01:02;;;;;;;20.90;9.30;;;;;;;-5.38;100.00;100579.40;107371;1275;23240;-71
2023/01/10 21:03:29;;;;;;;27.40;10.40;;;;;;;-5.40;100.00;100587.65;107428;1263;22521;-71
2023/01/10 21:05:57;;;;;;;15.50;7.30;;;;;;;-5.36;100.00;100590.77;107419;1275;22546;-71
2023/01/10 21:08:24;;;;;;;29.30;11.10;;;;;;;-5.34;100.00;100596.13;107739;1273;23472;-71
2023/01/10 21:10:51;;;;;;;31.20;11.90;;;;;;;-5.37;100.00;100590.90;107495;1275;22522;-71
2023/01/10 21:13:20;;;;;;;21.40;9.40;;;;;;;-5.36;100.00;100599.30;107482;1275;25329;-72
2023/01/10 21:15:47;;;;;;;43.30;20.50;;;;;;;-5.32;100.00;100608.46;107476;1275;24088;-71
2023/01/10 21:18:14;;;;;;;22.70;8.60;;;;;;;-5.28;100.00;100606.61;107554;1272;23114;-71
2023/01/10 21:20:45;;;;;;;23.10;9.60;;;;;;;-5.35;100.00;100611.55;107485;1275;22552;-72
2023/01/10 21:23:12;;;;;;;29.30;12.30;;;;;;;-5.42;100.00;100616.50;107468;1275;25074;-72
2023/01/10 21:25:39;;;;;;;18.80;6.70;;;;;;;-5.40;100.00;100625.34;107318;1275;22559;-72
2023/01/10 21:28:10;;;;;;;27.00;14.60;;;;;;;-5.38;100.00;100626.20;107461;1275;24212;-72
2023/01/10 21:30:37;;;;;;;14.90;7.50;;;;;;;-5.42;100.00;100626.39;107412;1275;25395;-72
2023/01/10 21:33:04;;;;;;;16.80;6.10;;;;;;;-5.49;100.00;100631.21;107490;1274;22562;-72
2023/01/10 21:35:32;;;;;;;18.70;8.50;;;;;;;-5.53;100.00;100626.42;107457;1275;22693;-72
2023/01/10 21:37:59;;;;;;;19.20;5.70;;;;;;;-5.50;100.00;100622.45;107577;1274;25518;-72
2023/01/10 21:40:26;;;;;;;15.90;6.50;;;;;;;-5.54;100.00;100618.02;107531;1275;22533;-72
2023/01/10 21:42:53;;;;;;;21.70;5.90;;;;;;;-5.60;100.00;100618.55;107381;1273;22537;-72
2023/01/10 21:45:21;;;;;;;21.30;6.40;;;;;;;-5.61;100.00;100617.12;107503;1275;25357;-72